sensor_id;sensor_type;location;lat;lon;timestamp;pressure;altitude;pressure_sealevel;temperature;humidity
28935;BME280;16044;52.726;-2.108;2023-04-09T00:02:23;101417.16;;;8.72;84.61
28935;BME280;16044;52.726;-2.108;2023-04-09T00:04:51;101417.44;;;8.69;85.06
28935;BME280;16044;52.726;-2.108;2023-04-09T00:07:18;101423.69;;;8.69;85.30
28935;BME280;16044;52.726;-2.108;2023-04-09T00:09:45;101419.56;;;8.65;85.44
28935;BME280;16044;52.726;-2.108;2023-04-09T00:12:12;101425.09;;;8.64;85.35
28935;BME280;16044;52.726;-2.108;2023-04-09T00:14:39;101418.00;;;8.63;85.48
28935;BME280;16044;52.726;-2.108;2023-04-09T00:17:06;101413.00;;;8.58;85.65
28935;BME280;16044;52.726;-2.108;2023-04-09T00:19:33;101417.00;;;8.54;86.21
28935;BME280;16044;52.726;-2.108;2023-04-09T00:22:00;101411.72;;;8.52;86.14
28935;BME280;16044;52.726;-2.108;2023-04-09T00:24:27;101409.59;;;8.46;86.50
28935;BME280;16044;52.726;-2.108;2023-04-09T00:26:54;101417.56;;;8.48;86.27
28935;BME280;16044;52.726;-2.108;2023-04-09T00:29:21;101410.44;;;8.47;86.08
28935;BME280;16044;52.726;-2.108;2023-04-09T00:31:49;101410.59;;;8.45;86.08
28935;BME280;16044;52.726;-2.108;2023-04-09T00:34:15;101401.34;;;8.48;86.16
28935;BME280;16044;52.726;-2.108;2023-04-09T00:36:42;101395.25;;;8.46;85.81
28935;BME280;16044;52.726;-2.108;2023-04-09T00:39:09;101392.91;;;8.41;86.11
28935;BME280;16044;52.726;-2.108;2023-04-09T00:41:36;101395.50;;;8.43;86.05
28935;BME280;16044;52.726;-2.108;2023-04-09T00:44:03;101395.78;;;8.39;86.03
28935;BME280;16044;52.726;-2.108;2023-04-09T00:46:30;101394.91;;;8.39;86.19
28935;BME280;16044;52.726;-2.108;2023-04-09T00:48:58;101387.50;;;8.41;86.00
28935;BME280;16044;52.726;-2.108;2023-04-09T00:51:25;101393.47;;;8.35;86.39
28935;BME280;16044;52.726;-2.108;2023-04-09T00:53:53;101382.41;;;8.38;86.04
28935;BME280;16044;52.726;-2.108;2023-04-09T00:56:22;101383.25;;;8.38;86.05
28935;BME280;16044;52.726;-2.108;2023-04-09T00:58:50;101367.75;;;8.40;85.90
28935;BME280;16044;52.726;-2.108;2023-04-09T01:01:17;101373.06;;;8.42;85.85
28935;BME280;16044;52.726;-2.108;2023-04-09T01:03:44;101373.06;;;8.42;85.97
28935;BME280;16044;52.726;-2.108;2023-04-09T01:06:51;101370.44;;;8.40;86.22
28935;BME280;16044;52.726;-2.108;2023-04-09T01:12:44;101359.41;;;8.44;85.91
28935;BME280;16044;52.726;-2.108;2023-04-09T01:15:25;101362.13;;;8.44;86.35
28935;BME280;16044;52.726;-2.108;2023-04-09T01:18:05;101360.25;;;8.44;86.40
28935;BME280;16044;52.726;-2.108;2023-04-09T01:20:48;101356.94;;;8.40;86.27
28935;BME280;16044;52.726;-2.108;2023-04-09T01:23:46;101357.69;;;8.43;86.07
28935;BME280;16044;52.726;-2.108;2023-04-09T01:29:30;101358.22;;;8.36;86.61
28935;BME280;16044;52.726;-2.108;2023-04-09T01:31:59;101355.38;;;8.38;86.23
28935;BME280;16044;52.726;-2.108;2023-04-09T01:34:29;101353.41;;;8.30;86.85
28935;BME280;16044;52.726;-2.108;2023-04-09T01:36:58;101356.81;;;8.32;86.30
28935;BME280;16044;52.726;-2.108;2023-04-09T01:39:27;101357.38;;;8.26;86.41
28935;BME280;16044;52.726;-2.108;2023-04-09T01:41:55;101353.97;;;8.24;86.65
28935;BME280;16044;52.726;-2.108;2023-04-09T01:44:23;101363.31;;;8.20;86.29
28935;BME280;16044;52.726;-2.108;2023-04-09T01:46:53;101359.31;;;8.14;86.47
28935;BME280;16044;52.726;-2.108;2023-04-09T01:49:21;101356.78;;;8.13;86.24
28935;BME280;16044;52.726;-2.108;2023-04-09T01:51:48;101361.03;;;8.06;86.46
28935;BME280;16044;52.726;-2.108;2023-04-09T01:54:16;101365.00;;;8.02;86.65
28935;BME280;16044;52.726;-2.108;2023-04-09T01:56:44;101360.44;;;7.92;87.45
28935;BME280;16044;52.726;-2.108;2023-04-09T01:59:12;101362.25;;;7.92;86.54
28935;BME280;16044;52.726;-2.108;2023-04-09T02:01:54;101355.56;;;7.86;86.87
28935;BME280;16044;52.726;-2.108;2023-04-09T02:04:32;101360.69;;;7.79;86.80
28935;BME280;16044;52.726;-2.108;2023-04-09T02:10:05;101358.09;;;7.68;87.31
28935;BME280;16044;52.726;-2.108;2023-04-09T02:12:35;101358.63;;;7.62;87.12
28935;BME280;16044;52.726;-2.108;2023-04-09T02:15:05;101352.66;;;7.58;87.31
28935;BME280;16044;52.726;-2.108;2023-04-09T02:17:33;101354.91;;;7.53;87.35
28935;BME280;16044;52.726;-2.108;2023-04-09T02:20:00;101353.47;;;7.49;87.40
28935;BME280;16044;52.726;-2.108;2023-04-09T02:22:27;101351.31;;;7.43;87.85
28935;BME280;16044;52.726;-2.108;2023-04-09T02:24:54;101347.91;;;7.41;87.62
28935;BME280;16044;52.726;-2.108;2023-04-09T02:27:21;101347.69;;;7.33;88.84
28935;BME280;16044;52.726;-2.108;2023-04-09T02:29:49;101352.13;;;7.34;88.63
28935;BME280;16044;52.726;-2.108;2023-04-09T02:32:16;101357.06;;;7.29;88.81
28935;BME280;16044;52.726;-2.108;2023-04-09T02:34:43;101346.53;;;7.26;88.79
28935;BME280;16044;52.726;-2.108;2023-04-09T02:37:11;101361.25;;;7.21;89.04
28935;BME280;16044;52.726;-2.108;2023-04-09T02:39:38;101355.41;;;7.16;89.15
28935;BME280;16044;52.726;-2.108;2023-04-09T02:42:05;101351.16;;;7.14;88.85
28935;BME280;16044;52.726;-2.108;2023-04-09T02:44:33;101354.38;;;7.08;89.28
28935;BME280;16044;52.726;-2.108;2023-04-09T02:47:00;101343.00;;;7.04;89.55
28935;BME280;16044;52.726;-2.108;2023-04-09T02:49:27;101350.38;;;7.02;89.00
28935;BME280;16044;52.726;-2.108;2023-04-09T02:51:54;101341.81;;;6.97;89.43
28935;BME280;16044;52.726;-2.108;2023-04-09T02:54:22;101351.88;;;6.95;89.70
28935;BME280;16044;52.726;-2.108;2023-04-09T02:56:49;101343.09;;;6.93;89.54
28935;BME280;16044;52.726;-2.108;2023-04-09T02:59:15;101335.25;;;6.90;90.13
28935;BME280;16044;52.726;-2.108;2023-04-09T03:01:43;101346.03;;;6.90;90.20
28935;BME280;16044;52.726;-2.108;2023-04-09T03:04:10;101339.78;;;6.89;90.34
28935;BME280;16044;52.726;-2.108;2023-04-09T03:06:37;101336.38;;;6.87;90.72
28935;BME280;16044;52.726;-2.108;2023-04-09T03:09:04;101332.13;;;6.85;91.80
28935;BME280;16044;52.726;-2.108;2023-04-09T03:11:31;101331.97;;;6.86;90.75
28935;BME280;16044;52.726;-2.108;2023-04-09T03:13:58;101322.19;;;6.85;90.61
28935;BME280;16044;52.726;-2.108;2023-04-09T03:16:25;101325.00;;;6.83;91.19
28935;BME280;16044;52.726;-2.108;2023-04-09T03:18:52;101326.84;;;6.83;90.64
28935;BME280;16044;52.726;-2.108;2023-04-09T03:21:19;101326.97;;;6.81;90.60
28935;BME280;16044;52.726;-2.108;2023-04-09T03:23:46;101314.75;;;6.77;91.45
28935;BME280;16044;52.726;-2.108;2023-04-09T03:26:14;101332.06;;;6.75;91.79
28935;BME280;16044;52.726;-2.108;2023-04-09T03:28:41;101324.22;;;6.72;91.74
28935;BME280;16044;52.726;-2.108;2023-04-09T03:31:07;101331.59;;;6.70;91.37
28935;BME280;16044;52.726;-2.108;2023-04-09T03:33:34;101325.72;;;6.64;92.34
28935;BME280;16044;52.726;-2.108;2023-04-09T03:36:01;101328.53;;;6.63;91.75
28935;BME280;16044;52.726;-2.108;2023-04-09T03:38:29;101325.41;;;6.58;92.53
28935;BME280;16044;52.726;-2.108;2023-04-09T03:40:56;101321.00;;;6.57;91.49
28935;BME280;16044;52.726;-2.108;2023-04-09T03:43:23;101313.56;;;6.49;92.70
28935;BME280;16044;52.726;-2.108;2023-04-09T03:45:50;101316.38;;;6.48;92.03
28935;BME280;16044;52.726;-2.108;2023-04-09T03:48:17;101314.94;;;6.43;91.68
28935;BME280;16044;52.726;-2.108;2023-04-09T03:50:44;101316.19;;;6.39;92.21
28935;BME280;16044;52.726;-2.108;2023-04-09T03:53:11;101310.94;;;6.38;91.89
28935;BME280;16044;52.726;-2.108;2023-04-09T03:55:38;101311.31;;;6.33;92.63
28935;BME280;16044;52.726;-2.108;2023-04-09T03:58:06;101319.53;;;6.32;92.08
28935;BME280;16044;52.726;-2.108;2023-04-09T04:00:33;101307.31;;;6.28;93.18
28935;BME280;16044;52.726;-2.108;2023-04-09T04:03:00;101295.94;;;6.24;92.71
28935;BME280;16044;52.726;-2.108;2023-04-09T04:05:27;101289.06;;;6.20;92.91
28935;BME280;16044;52.726;-2.108;2023-04-09T04:07:54;101289.72;;;6.12;93.84
28935;BME280;16044;52.726;-2.108;2023-04-09T04:10:21;101290.00;;;6.09;93.53
28935;BME280;16044;52.726;-2.108;2023-04-09T04:12:48;101280.47;;;6.05;92.91
28935;BME280;16044;52.726;-2.108;2023-04-09T04:15:15;101280.13;;;5.98;93.78
28935;BME280;16044;52.726;-2.108;2023-04-09T04:17:42;101279.59;;;5.93;94.37
28935;BME280;16044;52.726;-2.108;2023-04-09T04:20:09;101275.34;;;5.91;93.63
28935;BME280;16044;52.726;-2.108;2023-04-09T04:22:37;101274.75;;;5.87;93.68
28935;BME280;16044;52.726;-2.108;2023-04-09T04:25:04;101266.78;;;5.85;93.32
28935;BME280;16044;52.726;-2.108;2023-04-09T04:27:31;101274.13;;;5.83;93.88
28935;BME280;16044;52.726;-2.108;2023-04-09T04:29:58;101272.56;;;5.81;94.37
28935;BME280;16044;52.726;-2.108;2023-04-09T04:32:27;101271.84;;;5.79;95.15
28935;BME280;16044;52.726;-2.108;2023-04-09T04:34:54;101269.38;;;5.76;95.90
28935;BME280;16044;52.726;-2.108;2023-04-09T04:37:21;101269.50;;;5.74;95.61
28935;BME280;16044;52.726;-2.108;2023-04-09T04:39:48;101271.59;;;5.71;95.57
28935;BME280;16044;52.726;-2.108;2023-04-09T04:42:15;101266.22;;;5.71;94.92
28935;BME280;16044;52.726;-2.108;2023-04-09T04:44:43;101266.47;;;5.68;95.12
28935;BME280;16044;52.726;-2.108;2023-04-09T04:47:11;101263.06;;;5.65;95.39
28935;BME280;16044;52.726;-2.108;2023-04-09T04:49:38;101258.78;;;5.63;95.63
28935;BME280;16044;52.726;-2.108;2023-04-09T04:52:05;101249.13;;;5.60;96.05
28935;BME280;16044;52.726;-2.108;2023-04-09T04:54:33;101251.81;;;5.60;96.25
28935;BME280;16044;52.726;-2.108;2023-04-09T04:57:00;101253.78;;;5.58;96.16
28935;BME280;16044;52.726;-2.108;2023-04-09T04:59:27;101258.69;;;5.53;97.03
28935;BME280;16044;52.726;-2.108;2023-04-09T05:01:55;101255.25;;;5.51;96.49
28935;BME280;16044;52.726;-2.108;2023-04-09T05:04:22;101254.03;;;5.44;98.27
28935;BME280;16044;52.726;-2.108;2023-04-09T05:06:49;101253.06;;;5.45;97.04
28935;BME280;16044;52.726;-2.108;2023-04-09T05:09:16;101251.47;;;5.42;97.23
28935;BME280;16044;52.726;-2.108;2023-04-09T05:11:45;101255.16;;;5.41;97.27
28935;BME280;16044;52.726;-2.108;2023-04-09T05:14:12;101255.28;;;5.40;97.42
28935;BME280;16044;52.726;-2.108;2023-04-09T05:16:39;101249.28;;;5.36;98.23
28935;BME280;16044;52.726;-2.108;2023-04-09T05:19:07;101242.06;;;5.37;98.01
28935;BME280;16044;52.726;-2.108;2023-04-09T05:21:34;101237.81;;;5.34;98.68
28935;BME280;16044;52.726;-2.108;2023-04-09T05:24:01;101241.22;;;5.36;98.71
28935;BME280;16044;52.726;-2.108;2023-04-09T05:26:28;101244.91;;;5.35;98.76
28935;BME280;16044;52.726;-2.108;2023-04-09T05:28:55;101241.22;;;5.36;98.94
28935;BME280;16044;52.726;-2.108;2023-04-09T05:31:22;101240.38;;;5.36;99.45
28935;BME280;16044;52.726;-2.108;2023-04-09T05:33:49;101233.28;;;5.35;99.90
28935;BME280;16044;52.726;-2.108;2023-04-09T05:36:17;101232.44;;;5.34;100.00
28935;BME280;16044;52.726;-2.108;2023-04-09T05:38:46;101225.22;;;5.35;100.00
28935;BME280;16044;52.726;-2.108;2023-04-09T05:41:13;101220.84;;;5.34;100.00
28935;BME280;16044;52.726;-2.108;2023-04-09T05:43:41;101212.16;;;5.30;100.00
28935;BME280;16044;52.726;-2.108;2023-04-09T05:46:08;101204.34;;;5.27;100.00
28935;BME280;16044;52.726;-2.108;2023-04-09T05:48:35;101206.66;;;5.32;100.00
28935;BME280;16044;52.726;-2.108;2023-04-09T05:51:03;101205.31;;;5.37;100.00
28935;BME280;16044;52.726;-2.108;2023-04-09T05:53:30;101203.09;;;5.31;100.00
28935;BME280;16044;52.726;-2.108;2023-04-09T05:55:57;101200.06;;;5.36;100.00
28935;BME280;16044;52.726;-2.108;2023-04-09T05:58:24;101196.53;;;5.35;100.00
28935;BME280;16044;52.726;-2.108;2023-04-09T06:00:53;101203.47;;;5.38;100.00
28935;BME280;16044;52.726;-2.108;2023-04-09T06:03:20;101204.91;;;5.42;100.00
28935;BME280;16044;52.726;-2.108;2023-04-09T06:05:47;101210.06;;;5.45;100.00
28935;BME280;16044;52.726;-2.108;2023-04-09T06:08:14;101204.81;;;5.43;100.00
28935;BME280;16044;52.726;-2.108;2023-04-09T06:10:42;101197.09;;;5.50;100.00
28935;BME280;16044;52.726;-2.108;2023-04-09T06:13:09;101195.22;;;5.62;100.00
28935;BME280;16044;52.726;-2.108;2023-04-09T06:15:38;101194.91;;;5.76;100.00
28935;BME280;16044;52.726;-2.108;2023-04-09T06:18:06;101197.91;;;5.94;100.00
28935;BME280;16044;52.726;-2.108;2023-04-09T06:20:33;101199.22;;;6.11;100.00
28935;BME280;16044;52.726;-2.108;2023-04-09T06:23:00;101212.91;;;6.29;100.00
28935;BME280;16044;52.726;-2.108;2023-04-09T06:25:30;101224.63;;;6.39;100.00
28935;BME280;16044;52.726;-2.108;2023-04-09T06:27:56;101218.88;;;6.54;100.00
28935;BME280;16044;52.726;-2.108;2023-04-09T06:30:23;101212.63;;;6.74;100.00
28935;BME280;16044;52.726;-2.108;2023-04-09T06:32:51;101211.88;;;6.93;100.00
28935;BME280;16044;52.726;-2.108;2023-04-09T06:35:20;101210.13;;;7.13;100.00
28935;BME280;16044;52.726;-2.108;2023-04-09T06:37:47;101226.75;;;7.28;100.00
28935;BME280;16044;52.726;-2.108;2023-04-09T06:40:14;101220.84;;;7.44;99.61
28935;BME280;16044;52.726;-2.108;2023-04-09T06:42:42;101228.94;;;7.54;98.30
28935;BME280;16044;52.726;-2.108;2023-04-09T06:45:09;101227.13;;;7.64;98.34
28935;BME280;16044;52.726;-2.108;2023-04-09T06:47:36;101217.31;;;7.73;98.06
28935;BME280;16044;52.726;-2.108;2023-04-09T06:50:03;101218.47;;;7.80;97.23
28935;BME280;16044;52.726;-2.108;2023-04-09T06:52:30;101219.63;;;7.87;96.66
28935;BME280;16044;52.726;-2.108;2023-04-09T06:54:57;101212.50;;;7.86;96.25
28935;BME280;16044;52.726;-2.108;2023-04-09T06:57:24;101213.25;;;8.08;96.13
28935;BME280;16044;52.726;-2.108;2023-04-09T06:59:52;101212.97;;;8.20;94.81
28935;BME280;16044;52.726;-2.108;2023-04-09T07:02:19;101218.63;;;8.27;93.19
28935;BME280;16044;52.726;-2.108;2023-04-09T07:04:46;101212.38;;;8.27;92.42
28935;BME280;16044;52.726;-2.108;2023-04-09T07:07:13;101211.38;;;8.18;92.51
28935;BME280;16044;52.726;-2.108;2023-04-09T07:09:41;101201.28;;;8.20;91.34
28935;BME280;16044;52.726;-2.108;2023-04-09T07:12:08;101203.72;;;8.04;91.54
28935;BME280;16044;52.726;-2.108;2023-04-09T07:14:35;101208.25;;;7.84;92.12
28935;BME280;16044;52.726;-2.108;2023-04-09T07:17:02;101203.97;;;7.52;93.86
28935;BME280;16044;52.726;-2.108;2023-04-09T07:19:29;101206.25;;;7.56;94.11
28935;BME280;16044;52.726;-2.108;2023-04-09T07:21:56;101209.22;;;7.53;95.21
28935;BME280;16044;52.726;-2.108;2023-04-09T07:24:23;101208.06;;;7.46;96.04
28935;BME280;16044;52.726;-2.108;2023-04-09T07:26:50;101203.38;;;7.48;96.04
28935;BME280;16044;52.726;-2.108;2023-04-09T07:29:18;101197.84;;;7.50;96.61
28935;BME280;16044;52.726;-2.108;2023-04-09T07:31:46;101197.59;;;7.53;97.66
28935;BME280;16044;52.726;-2.108;2023-04-09T07:34:13;101191.19;;;7.64;97.49
28935;BME280;16044;52.726;-2.108;2023-04-09T07:36:40;101198.59;;;7.71;97.87
28935;BME280;16044;52.726;-2.108;2023-04-09T07:39:08;101197.31;;;7.85;97.90
28935;BME280;16044;52.726;-2.108;2023-04-09T07:41:35;101196.75;;;7.91;97.34
28935;BME280;16044;52.726;-2.108;2023-04-09T07:44:03;101203.03;;;8.02;96.49
28935;BME280;16044;52.726;-2.108;2023-04-09T07:46:32;101199.16;;;8.04;96.45
28935;BME280;16044;52.726;-2.108;2023-04-09T07:48:59;101205.41;;;8.05;96.62
28935;BME280;16044;52.726;-2.108;2023-04-09T07:51:26;101210.97;;;8.13;96.32
28935;BME280;16044;52.726;-2.108;2023-04-09T07:53:53;101206.09;;;8.16;95.76
28935;BME280;16044;52.726;-2.108;2023-04-09T07:56:20;101205.84;;;8.10;96.29
28935;BME280;16044;52.726;-2.108;2023-04-09T07:58:47;101216.75;;;8.28;95.73
28935;BME280;16044;52.726;-2.108;2023-04-09T08:01:16;101212.34;;;8.36;95.59
28935;BME280;16044;52.726;-2.108;2023-04-09T08:03:43;101218.34;;;8.50;95.07
28935;BME280;16044;52.726;-2.108;2023-04-09T08:06:11;101212.31;;;8.66;93.83
28935;BME280;16044;52.726;-2.108;2023-04-09T08:08:38;101207.97;;;8.92;93.06
28935;BME280;16044;52.726;-2.108;2023-04-09T08:11:05;101207.13;;;9.20;92.22
28935;BME280;16044;52.726;-2.108;2023-04-09T08:13:32;101200.69;;;9.48;90.80
28935;BME280;16044;52.726;-2.108;2023-04-09T08:16:00;101200.66;;;9.76;88.81
28935;BME280;16044;52.726;-2.108;2023-04-09T08:18:28;101201.34;;;9.96;86.95
28935;BME280;16044;52.726;-2.108;2023-04-09T08:20:55;101197.00;;;10.21;85.70
28935;BME280;16044;52.726;-2.108;2023-04-09T08:23:23;101197.47;;;10.34;83.49
28935;BME280;16044;52.726;-2.108;2023-04-09T08:25:50;101201.16;;;10.51;82.07
28935;BME280;16044;52.726;-2.108;2023-04-09T08:28:16;101202.97;;;10.69;81.21
28935;BME280;16044;52.726;-2.108;2023-04-09T08:30:43;101191.00;;;10.80;79.46
28935;BME280;16044;52.726;-2.108;2023-04-09T08:33:10;101194.66;;;10.97;79.02
28935;BME280;16044;52.726;-2.108;2023-04-09T08:35:37;101197.25;;;11.06;78.19
28935;BME280;16044;52.726;-2.108;2023-04-09T08:38:06;101182.88;;;11.22;76.91
28935;BME280;16044;52.726;-2.108;2023-04-09T08:40:34;101178.34;;;11.31;75.96
28935;BME280;16044;52.726;-2.108;2023-04-09T08:43:05;101183.63;;;11.32;75.24
28935;BME280;16044;52.726;-2.108;2023-04-09T08:45:34;101182.78;;;11.48;75.35
28935;BME280;16044;52.726;-2.108;2023-04-09T08:48:02;101172.25;;;11.45;75.24
28935;BME280;16044;52.726;-2.108;2023-04-09T08:50:32;101166.81;;;11.45;74.09
28935;BME280;16044;52.726;-2.108;2023-04-09T08:53:02;101167.88;;;11.52;74.19
28935;BME280;16044;52.726;-2.108;2023-04-09T08:55:29;101168.22;;;11.49;74.18
28935;BME280;16044;52.726;-2.108;2023-04-09T08:57:56;101164.63;;;11.41;73.54
28935;BME280;16044;52.726;-2.108;2023-04-09T09:00:24;101168.97;;;11.17;73.74
28935;BME280;16044;52.726;-2.108;2023-04-09T09:03:09;101161.31;;;11.12;74.96
28935;BME280;16044;52.726;-2.108;2023-04-09T09:05:43;101164.72;;;11.15;75.77
28935;BME280;16044;52.726;-2.108;2023-04-09T09:08:22;101164.38;;;11.18;75.62
28935;BME280;16044;52.726;-2.108;2023-04-09T09:10:50;101153.72;;;11.24;76.06
28935;BME280;16044;52.726;-2.108;2023-04-09T09:13:21;101157.69;;;11.38;75.51
28935;BME280;16044;52.726;-2.108;2023-04-09T09:15:50;101154.13;;;11.54;75.03
28935;BME280;16044;52.726;-2.108;2023-04-09T09:18:41;101149.91;;;11.68;74.75
28935;BME280;16044;52.726;-2.108;2023-04-09T09:21:16;101149.25;;;11.74;73.69
28935;BME280;16044;52.726;-2.108;2023-04-09T09:23:45;101148.25;;;11.83;73.81
28935;BME280;16044;52.726;-2.108;2023-04-09T09:26:19;101140.44;;;11.72;72.33
28935;BME280;16044;52.726;-2.108;2023-04-09T09:28:48;101154.00;;;11.80;73.00
28935;BME280;16044;52.726;-2.108;2023-04-09T09:31:17;101152.28;;;11.79;72.21
28935;BME280;16044;52.726;-2.108;2023-04-09T09:33:46;101149.25;;;11.82;72.78
28935;BME280;16044;52.726;-2.108;2023-04-09T09:36:31;101142.81;;;11.83;72.87
28935;BME280;16044;52.726;-2.108;2023-04-09T09:39:00;101143.19;;;11.97;72.76
28935;BME280;16044;52.726;-2.108;2023-04-09T09:41:36;101138.41;;;12.07;72.83
28935;BME280;16044;52.726;-2.108;2023-04-09T09:44:04;101135.72;;;11.99;72.13
28935;BME280;16044;52.726;-2.108;2023-04-09T09:46:39;101136.72;;;12.06;71.54
28935;BME280;16044;52.726;-2.108;2023-04-09T09:49:08;101136.22;;;12.02;71.45
28935;BME280;16044;52.726;-2.108;2023-04-09T09:51:37;101137.91;;;12.03;71.83
28935;BME280;16044;52.726;-2.108;2023-04-09T09:54:06;101136.72;;;12.06;71.64
28935;BME280;16044;52.726;-2.108;2023-04-09T09:56:37;101136.38;;;12.09;72.29
28935;BME280;16044;52.726;-2.108;2023-04-09T09:59:09;101128.72;;;12.21;72.32
28935;BME280;16044;52.726;-2.108;2023-04-09T10:01:42;101121.06;;;12.33;71.86
28935;BME280;16044;52.726;-2.108;2023-04-09T10:04:13;101126.13;;;12.52;72.11
28935;BME280;16044;52.726;-2.108;2023-04-09T10:06:42;101113.16;;;12.71;70.35
28935;BME280;16044;52.726;-2.108;2023-04-09T10:09:10;101112.94;;;12.80;69.10
28935;BME280;16044;52.726;-2.108;2023-04-09T10:11:38;101114.44;;;12.83;68.58
28935;BME280;16044;52.726;-2.108;2023-04-09T10:14:08;101121.22;;;12.87;68.85
28935;BME280;16044;52.726;-2.108;2023-04-09T10:16:35;101114.72;;;12.96;68.93
28935;BME280;16044;52.726;-2.108;2023-04-09T10:19:03;101107.22;;;13.06;68.53
28935;BME280;16044;52.726;-2.108;2023-04-09T10:21:35;101100.22;;;13.12;67.67
28935;BME280;16044;52.726;-2.108;2023-04-09T10:24:09;101098.50;;;13.11;67.17
28935;BME280;16044;52.726;-2.108;2023-04-09T10:26:41;101088.84;;;13.09;67.22
28935;BME280;16044;52.726;-2.108;2023-04-09T10:29:14;101073.84;;;13.13;67.64
28935;BME280;16044;52.726;-2.108;2023-04-09T10:34:39;101054.44;;;13.16;68.01
28935;BME280;16044;52.726;-2.108;2023-04-09T10:37:15;101071.44;;;13.18;67.61
28935;BME280;16044;52.726;-2.108;2023-04-09T10:39:47;101066.69;;;13.12;67.99
28935;BME280;16044;52.726;-2.108;2023-04-09T10:42:23;101071.06;;;13.21;67.30
28935;BME280;16044;52.726;-2.108;2023-04-09T10:45:09;101053.03;;;13.20;66.60
28935;BME280;16044;52.726;-2.108;2023-04-09T10:47:42;101057.06;;;13.32;67.09
28935;BME280;16044;52.726;-2.108;2023-04-09T10:50:20;101052.59;;;13.39;66.87
28935;BME280;16044;52.726;-2.108;2023-04-09T10:52:52;101038.91;;;13.48;66.67
28935;BME280;16044;52.726;-2.108;2023-04-09T10:55:38;101029.41;;;13.43;66.51
28935;BME280;16044;52.726;-2.108;2023-04-09T10:58:10;101035.72;;;13.44;66.09
28935;BME280;16044;52.726;-2.108;2023-04-09T11:00:43;101028.09;;;13.39;66.54
28935;BME280;16044;52.726;-2.108;2023-04-09T11:06:02;101032.25;;;13.50;67.17
28935;BME280;16044;52.726;-2.108;2023-04-09T11:08:33;101021.78;;;13.62;66.44
28935;BME280;16044;52.726;-2.108;2023-04-09T11:11:01;101020.84;;;13.70;66.85
28935;BME280;16044;52.726;-2.108;2023-04-09T11:13:30;101013.47;;;13.78;66.06
28935;BME280;16044;52.726;-2.108;2023-04-09T11:15:58;101008.47;;;13.97;66.17
28935;BME280;16044;52.726;-2.108;2023-04-09T11:18:28;101004.63;;;14.06;64.67
28935;BME280;16044;52.726;-2.108;2023-04-09T11:21:00;101001.38;;;14.11;64.73
28935;BME280;16044;52.726;-2.108;2023-04-09T11:23:30;100988.94;;;14.08;63.86
28935;BME280;16044;52.726;-2.108;2023-04-09T11:25:58;100992.78;;;14.14;64.24
28935;BME280;16044;52.726;-2.108;2023-04-09T11:28:25;100981.72;;;14.15;64.11
28935;BME280;16044;52.726;-2.108;2023-04-09T11:30:52;100986.88;;;14.25;64.16
28935;BME280;16044;52.726;-2.108;2023-04-09T11:33:19;100982.00;;;14.35;63.58
28935;BME280;16044;52.726;-2.108;2023-04-09T11:35:47;100971.81;;;14.44;62.89
28935;BME280;16044;52.726;-2.108;2023-04-09T11:38:14;100980.56;;;14.54;63.05
28935;BME280;16044;52.726;-2.108;2023-04-09T11:40:44;100970.22;;;14.65;63.19
28935;BME280;16044;52.726;-2.108;2023-04-09T11:43:15;100966.34;;;14.74;62.05
28935;BME280;16044;52.726;-2.108;2023-04-09T11:45:43;100970.44;;;14.85;61.88
28935;BME280;16044;52.726;-2.108;2023-04-09T11:48:10;100950.00;;;14.95;62.00
28935;BME280;16044;52.726;-2.108;2023-04-09T11:50:38;100954.25;;;15.05;61.12
28935;BME280;16044;52.726;-2.108;2023-04-09T11:53:22;100954.72;;;15.08;61.46
28935;BME280;16044;52.726;-2.108;2023-04-09T11:55:50;100956.03;;;15.12;60.61
28935;BME280;16044;52.726;-2.108;2023-04-09T11:58:24;100953.16;;;15.20;60.16
28935;BME280;16044;52.726;-2.108;2023-04-09T12:00:57;100940.63;;;15.26;59.60
28935;BME280;16044;52.726;-2.108;2023-04-09T12:03:30;100945.94;;;15.34;60.16
28935;BME280;16044;52.726;-2.108;2023-04-09T12:06:01;100942.81;;;15.37;60.27
28935;BME280;16044;52.726;-2.108;2023-04-09T12:08:29;100935.53;;;15.45;59.47
28935;BME280;16044;52.726;-2.108;2023-04-09T12:11:06;100950.84;;;15.46;59.20
28935;BME280;16044;52.726;-2.108;2023-04-09T12:13:35;100932.56;;;15.46;59.08
28935;BME280;16044;52.726;-2.108;2023-04-09T12:16:02;100943.31;;;15.48;59.35
28935;BME280;16044;52.726;-2.108;2023-04-09T12:18:29;100936.22;;;15.53;59.05
28935;BME280;16044;52.726;-2.108;2023-04-09T12:20:56;100932.00;;;15.51;57.58
28935;BME280;16044;52.726;-2.108;2023-04-09T12:23:23;100939.84;;;15.60;57.99
28935;BME280;16044;52.726;-2.108;2023-04-09T12:25:50;100938.16;;;15.59;57.68
28935;BME280;16044;52.726;-2.108;2023-04-09T12:28:17;100933.78;;;15.65;57.29
28935;BME280;16044;52.726;-2.108;2023-04-09T12:30:44;100939.78;;;15.75;57.98
28935;BME280;16044;52.726;-2.108;2023-04-09T12:33:12;100932.34;;;15.69;56.95
28935;BME280;16044;52.726;-2.108;2023-04-09T12:35:39;100934.22;;;15.69;57.17
28935;BME280;16044;52.726;-2.108;2023-04-09T12:38:06;100923.72;;;15.72;57.59
28935;BME280;16044;52.726;-2.108;2023-04-09T12:40:37;100922.34;;;15.76;57.55
28935;BME280;16044;52.726;-2.108;2023-04-09T12:43:04;100923.41;;;15.82;56.77
28935;BME280;16044;52.726;-2.108;2023-04-09T12:45:31;100931.66;;;15.89;56.54
28935;BME280;16044;52.726;-2.108;2023-04-09T12:47:58;100924.34;;;15.96;56.17
28935;BME280;16044;52.726;-2.108;2023-04-09T12:50:26;100920.59;;;16.04;56.38
28935;BME280;16044;52.726;-2.108;2023-04-09T12:52:53;100920.59;;;16.04;56.02
28935;BME280;16044;52.726;-2.108;2023-04-09T12:55:20;100915.56;;;16.07;55.52
28935;BME280;16044;52.726;-2.108;2023-04-09T12:57:49;100910.50;;;16.04;55.69
28935;BME280;16044;52.726;-2.108;2023-04-09T13:00:16;100911.75;;;16.02;55.79
28935;BME280;16044;52.726;-2.108;2023-04-09T13:02:43;100908.19;;;16.01;56.10
28935;BME280;16044;52.726;-2.108;2023-04-09T13:05:10;100903.34;;;16.03;56.26
28935;BME280;16044;52.726;-2.108;2023-04-09T13:07:38;100897.66;;;16.05;56.36
28935;BME280;16044;52.726;-2.108;2023-04-09T13:10:08;100895.16;;;16.03;56.25